Share

Lidgerwood, ND

Open Plains ND (KNDWYNDM2) Elev 1056 ft | 46.25 °N, 97.12 °W | Change Station
Active Advisory: Wind Advisory

Current weather conditions updated 3 minutes ago

Mostly Cloudy
Mostly Cloudy
44.2 °F
Feels Like 35 °F
N
22.7
Wind Variable Wind from ESE
Sunrise 6:36 AM
Sunset 8:19 PM
Moon Waning Gibbous

Tomorrow is forecast to be Much Warmer than today.

Pressure 29.97 in
Visibility -9999.0 miles
Clouds
Windchill 35 °F
Dew Point 34 °F
Humidity 68%
Rainfall 0.30 in
Snow Depth Not available.
UV Not available.
Pollen 9.00 out of 12
Air Quality Not available.
Flu Activity Sporadic
METAR K8D3 190056Z AUTO 14021G28KT 08/03 A2993 RMK AO1 PK WND 14034/0000 SLP148 T00830033

More Conditions Fewer Conditions

Pressure 29.97 in
Visibility -9999.0 miles
Clouds
Windchill 35 °F
Dew Point 34 °F
Humidity 68%
Rainfall 0.30 in
Snow Depth Not available.
UV Not available.
Pollen 9.00 out of 12
Air Quality Not available.
Flu Activity Sporadic
METAR K8D3 190056Z AUTO 14021G28KT 08/03 A2993 RMK AO1 PK WND 14034/0000 SLP148 T00830033

More Conditions Fewer Conditions

10-Day Weather Forecast

Almanac

Astronomy

Apr. 18, 2014 Rise Set
Actual Time 6:36 AM CDT 8:19 PM CDT
Civil Twilight 6:05 AM CDT 8:51 PM CDT
Nautical Twilight 5:26 AM CDT 9:30 PM CDT
Astronomical Twilight 4:44 AM CDT 10:12 PM CDT
Moon No Moon Rise 8:52 AM CDT (4/18)
Length of Visible Light 14h 46m
Length of Day
13h 42m
Tomorrow will be 3m 4s longer.
Waning Gibbous, 84% of the Moon is Illuminated
Today
Waning Gibbous
Apr 22
Last Quarter
Apr 29
New
May 6
First Quarter
May 14
Full

Today's Extremes

State Highs State Lows

Community

  • Cloudy spring view
    Cloudy spring view
  • Old barn
    Old barn
  • What's for Lunch?
    What's for Lunch?
  • SUNRISE THROUGH THE TREES.
    SUNRISE THROUGH THE TREES.
  • Dog Wood Blossoms
    Dog Wood Blossoms

WunderPhotos

Upload Photos

1,702,565 photos uploaded!

Nearby

Snow Depth

Station Depth Elevation
No new snow has been reported.

Coastal Water Temperatures

Place Temperature
No Stations Reporting

Earthquake Activity

City Distance Mag. Time & Date
No recent earthquake activity has been reported nearby.
Minimum magnitude displayed is 2.5.

Nearby Weather Stations

Station Location Temp. Windchill Dew Point Humidity Wind Precip. Elev Updated Type
Open Plains ND, Wyndmere, ND 44.2 °F 35 °F 34 °F 68% ESE  at  22.7 mph - / hr 1056 ft 8:33 PM CDT Normal
NDDOT Wahpeton ND 13 MP 384.5, Mooreton, ND 47 °F 38 °F 35 °F 63% ESE  at  30 mph 0.00 in / hr 962 ft 7:10 PM CDT MADIS
RAWS MARSHALL CO SD, Lake City, SD 45 °F 45 °F 41 °F 87% North  at  0 mph 0.00 in / hr 2009 ft 7:59 PM CDT MADIS

Show More Stations Show Fewer Stations

What do you think?

We're not finished. Please let us know what you like, what you don't like, and what you are still missing.